createdAt,value
2018-02-18T00:01:01.423Z,102343.67
2018-02-18T00:03:28.954Z,102350.31
2018-02-18T00:05:56.496Z,102354.78
2018-02-18T00:08:24.113Z,102360.05
2018-02-18T00:10:51.602Z,102351.16
2018-02-18T00:13:19.126Z,102351.73
2018-02-18T00:15:46.647Z,102354.73
2018-02-18T00:18:14.177Z,102364.95
2018-02-18T00:20:41.695Z,102359.64
2018-02-18T00:23:09.216Z,102363.62
2018-02-18T00:25:36.738Z,102367.95
2018-02-18T00:28:04.259Z,102370.70
2018-02-18T00:30:31.780Z,102376.26
2018-02-18T00:32:59.367Z,102371.30
2018-02-18T00:35:26.884Z,102378.37
2018-02-18T00:37:54.445Z,102381.06
2018-02-18T00:40:21.963Z,102376.25
2018-02-18T00:42:49.481Z,102386.03
2018-02-18T00:45:17.053Z,102386.88
2018-02-18T00:47:44.593Z,102381.95
2018-02-18T00:50:12.124Z,102386.27
2018-02-18T00:52:39.701Z,102389.30
2018-02-18T00:55:07.225Z,102385.38
2018-02-18T00:57:34.751Z,102386.37
2018-02-18T01:00:02.284Z,102390.69
2018-02-18T01:02:29.837Z,102387.10
2018-02-18T01:04:57.434Z,102393.40
2018-02-18T01:07:24.969Z,102398.59
2018-02-18T01:09:52.553Z,102400.37
2018-02-18T01:12:20.078Z,102403.45
2018-02-18T01:14:47.672Z,102402.52
2018-02-18T01:17:15.239Z,102399.58
2018-02-18T01:19:42.766Z,102404.44
2018-02-18T01:22:10.301Z,102402.52
2018-02-18T01:24:37.808Z,102403.07
2018-02-18T01:27:05.329Z,102401.18
2018-02-18T01:29:32.859Z,102406.11
2018-02-18T01:32:00.376Z,102404.40
2018-02-18T01:34:27.958Z,102404.39
2018-02-18T01:36:55.506Z,102410.69
2018-02-18T01:39:23.035Z,102412.41
2018-02-18T01:41:50.638Z,102411.56
2018-02-18T01:44:18.169Z,102418.20
2018-02-18T01:46:45.685Z,102416.34
2018-02-18T01:49:13.314Z,102414.17
2018-02-18T01:51:40.881Z,102418.20
2018-02-18T01:54:08.436Z,102414.17
2018-02-18T01:56:35.958Z,102415.06
2018-02-18T01:59:03.480Z,102416.82
2018-02-18T02:01:31.118Z,102416.21
2018-02-18T02:03:58.668Z,102421.52
2018-02-18T02:06:26.194Z,102423.79
2018-02-18T02:08:53.728Z,102424.68
2018-02-18T02:11:21.347Z,102415.79
2018-02-18T02:13:48.862Z,102422.90
2018-02-18T02:16:16.380Z,102433.01
2018-02-18T02:18:43.901Z,102428.70
2018-02-18T02:21:11.426Z,102427.83
2018-02-18T02:23:39.040Z,102429.58
2018-02-18T02:26:06.605Z,102434.02
2018-02-18T02:28:34.133Z,102431.42
2018-02-18T02:31:01.726Z,102437.60
2018-02-18T02:33:29.253Z,102439.80
2018-02-18T02:35:56.848Z,102434.90
2018-02-18T02:38:24.385Z,102444.61
2018-02-18T02:40:51.965Z,102444.67
2018-02-18T02:43:19.496Z,102444.62
2018-02-18T02:45:47.023Z,102441.41
2018-02-18T02:48:14.623Z,102443.63
2018-02-18T02:50:42.133Z,102441.84
2018-02-18T02:53:09.669Z,102447.54
2018-02-18T02:55:37.185Z,102444.39
2018-02-18T02:58:04.785Z,102441.67
2018-02-18T03:00:32.312Z,102442.79
2018-02-18T03:02:59.841Z,102445.82
2018-02-18T03:05:27.348Z,102448.48
2018-02-18T03:07:54.882Z,102451.80
2018-02-18T03:10:22.418Z,102454.13
2018-02-18T03:12:49.933Z,102450.52
2018-02-18T03:15:17.496Z,102451.34
2018-02-18T03:17:45.061Z,102455.81
2018-02-18T03:20:12.618Z,102452.78
2018-02-18T03:22:40.181Z,102446.87
2018-02-18T03:25:07.688Z,102446.09
2018-02-18T03:27:35.207Z,102443.05
2018-02-18T03:30:02.737Z,102439.09
2018-02-18T03:32:30.260Z,102437.21
2018-02-18T03:34:57.772Z,102435.05
2018-02-18T03:37:25.279Z,102433.73
2018-02-18T03:39:52.784Z,102438.42
2018-02-18T03:42:20.301Z,102433.67
2018-02-18T03:44:47.844Z,102434.11
2018-02-18T03:47:15.360Z,102435.93
2018-02-18T03:49:42.929Z,102439.79
2018-02-18T03:52:10.489Z,102441.06
2018-02-18T03:54:38.017Z,102438.91
2018-02-18T03:57:05.538Z,102437.25
2018-02-18T03:59:33.052Z,102443.39
2018-02-18T04:02:00.567Z,102435.45
2018-02-18T04:04:28.185Z,102443.39
2018-02-18T04:06:55.713Z,102443.87
2018-02-18T04:09:23.253Z,102444.34
2018-02-18T04:11:50.768Z,102446.98
2018-02-18T04:14:18.281Z,102444.28
2018-02-18T04:16:45.798Z,102451.35
2018-02-18T04:19:13.312Z,102457.89
2018-02-18T04:21:40.844Z,102459.56
2018-02-18T04:24:08.468Z,102463.52
2018-02-18T04:26:36.023Z,102454.81
2018-02-18T04:29:03.585Z,102461.00
2018-02-18T04:31:31.141Z,102458.42
2018-02-18T04:33:58.653Z,102453.61
2018-02-18T04:36:26.161Z,102458.53
2018-02-18T04:38:53.721Z,102462.00
2018-02-18T04:41:21.265Z,102469.47
2018-02-18T04:43:48.840Z,102464.08
2018-02-18T04:46:16.369Z,102464.59
2018-02-18T04:48:43.897Z,102465.47
2018-02-18T04:51:11.413Z,102469.02
2018-02-18T04:53:38.921Z,102472.16
2018-02-18T04:56:07.361Z,102471.23
2018-02-18T04:58:34.930Z,102475.70
2018-02-18T05:01:02.451Z,102473.48
2018-02-18T05:03:29.996Z,102472.05
2018-02-18T05:05:57.510Z,102477.86
2018-02-18T05:08:25.058Z,102481.33
2018-02-18T05:10:52.570Z,102496.91
2018-02-18T05:13:20.176Z,102497.30
2018-02-18T05:15:47.732Z,102495.91
2018-02-18T05:18:15.261Z,102487.13
2018-02-18T05:20:42.821Z,102507.34
2018-02-18T05:23:10.336Z,102507.34
2018-02-18T05:25:37.844Z,102511.32
2018-02-18T05:28:05.396Z,102515.35
2018-02-18T05:30:32.925Z,102513.19
2018-02-18T05:33:00.550Z,102511.32
2018-02-18T05:35:28.063Z,102515.27
2018-02-18T05:37:55.582Z,102526.70
2018-02-18T05:40:23.145Z,102525.13
2018-02-18T05:42:50.661Z,102529.48
2018-02-18T05:45:18.192Z,102529.80
2018-02-18T05:47:45.813Z,102534.16
2018-02-18T05:50:13.353Z,102530.31
2018-02-18T05:52:40.885Z,102538.27
2018-02-18T05:55:08.405Z,102538.31
2018-02-18T05:57:35.920Z,102540.10
2018-02-18T06:00:03.509Z,102543.23
2018-02-18T06:02:31.022Z,102546.84
2018-02-18T06:04:58.542Z,102550.83
2018-02-18T06:07:26.070Z,102554.24
2018-02-18T06:09:53.661Z,102551.70
2018-02-18T06:12:21.173Z,102562.83
2018-02-18T06:14:48.694Z,102565.47
2018-02-18T06:17:16.214Z,102562.77
2018-02-18T06:19:43.783Z,102561.06
2018-02-18T06:22:11.308Z,102559.67
2018-02-18T06:24:38.900Z,102560.06
2018-02-18T06:27:06.465Z,102561.52
2018-02-18T06:29:33.996Z,102559.36
2018-02-18T06:32:01.522Z,102564.47
2018-02-18T06:34:29.058Z,102564.15
2018-02-18T06:36:56.578Z,102565.91
2018-02-18T06:39:24.165Z,102569.66
2018-02-18T06:41:51.721Z,102573.06
2018-02-18T06:44:19.232Z,102576.09
2018-02-18T06:46:46.745Z,102573.20
2018-02-18T06:49:14.253Z,102578.55
2018-02-18T06:51:41.860Z,102577.55
2018-02-18T06:54:09.398Z,102580.64
2018-02-18T06:56:36.923Z,102586.31
2018-02-18T06:59:04.454Z,102591.12
2018-02-18T07:01:31.967Z,102585.06
2018-02-18T07:03:59.490Z,102590.62
2018-02-18T07:06:27.002Z,102583.98
2018-02-18T07:08:54.530Z,102583.97
2018-02-18T07:11:22.051Z,102589.35
2018-02-18T07:13:49.607Z,102585.22
2018-02-18T07:16:17.148Z,102580.88
2018-02-18T07:18:44.662Z,102581.83
2018-02-18T07:21:12.172Z,102579.26
2018-02-18T07:23:39.680Z,102579.56
2018-02-18T07:26:07.272Z,102575.13
2018-02-18T07:28:34.856Z,102583.65
2018-02-18T07:31:02.415Z,102584.17
2018-02-18T07:33:29.923Z,102590.06
2018-02-18T07:35:57.547Z,102587.08
2018-02-18T07:38:25.068Z,102584.81
2018-02-18T07:40:52.648Z,102583.55
2018-02-18T07:43:20.157Z,102580.70
2018-02-18T07:45:47.673Z,102582.17
2018-02-18T07:48:15.255Z,102580.52
2018-02-18T07:50:42.908Z,102581.77
2018-02-18T07:53:10.419Z,102586.52
2018-02-18T07:55:38.008Z,102586.21
2018-02-18T07:58:05.573Z,102587.60
2018-02-18T08:00:33.135Z,102586.64
2018-02-18T08:03:00.641Z,102588.11
2018-02-18T08:05:28.159Z,102585.18
2018-02-18T08:07:55.689Z,102588.73
2018-02-18T08:10:23.247Z,102581.77
2018-02-18T08:12:50.794Z,102580.55
2018-02-18T08:15:18.307Z,102581.52
2018-02-18T08:17:45.821Z,102590.62
2018-02-18T08:20:13.405Z,102590.36
2018-02-18T08:22:40.911Z,102599.08
2018-02-18T08:25:08.540Z,102588.87
2018-02-18T08:27:36.093Z,102585.66
2018-02-18T08:30:03.622Z,102582.72
2018-02-18T08:32:31.160Z,102587.20
2018-02-18T08:34:58.688Z,102581.83
2018-02-18T08:37:26.202Z,102585.09
2018-02-18T08:39:53.786Z,102584.89
2018-02-18T08:42:21.297Z,102586.27
2018-02-18T08:44:48.806Z,102580.50
2018-02-18T08:47:16.310Z,102574.81
2018-02-18T08:49:43.822Z,102582.29
2018-02-18T08:52:11.333Z,102588.41
2018-02-18T08:54:38.859Z,102583.89
2018-02-18T08:57:06.377Z,102593.55
2018-02-18T08:59:33.885Z,102581.11
2018-02-18T09:02:01.416Z,102586.03
2018-02-18T09:04:29.006Z,102585.58
2018-02-18T09:06:56.524Z,102585.39
2018-02-18T09:09:24.045Z,102592.97
2018-02-18T09:11:51.661Z,102593.50
2018-02-18T09:14:19.170Z,102591.05
2018-02-18T09:16:46.791Z,102593.06
2018-02-18T09:19:14.302Z,102595.48
2018-02-18T09:21:41.826Z,102591.28
2018-02-18T09:24:09.333Z,102597.05
2018-02-18T09:26:36.854Z,102598.23
2018-02-18T09:29:04.363Z,102593.64
2018-02-18T09:31:31.897Z,102593.28
2018-02-18T09:33:59.406Z,102599.00
2018-02-18T09:36:26.916Z,102603.64
2018-02-18T09:38:54.554Z,102607.23
2018-02-18T09:41:22.064Z,102600.23
2018-02-18T09:43:49.573Z,102609.44
2018-02-18T09:46:17.086Z,102601.92
2018-02-18T09:48:44.771Z,102610.38
2018-02-18T09:51:12.300Z,102603.34
2018-02-18T09:53:39.881Z,102599.55
2018-02-18T09:56:07.394Z,102604.44
2018-02-18T09:58:34.929Z,102605.81
2018-02-18T10:01:02.438Z,102607.81
2018-02-18T10:03:33.832Z,102608.96
2018-02-18T10:06:01.341Z,102611.05
2018-02-18T10:08:28.850Z,102613.27
2018-02-18T10:10:56.360Z,102620.61
2018-02-18T10:13:23.868Z,102617.02
2018-02-18T10:15:51.368Z,102618.30
2018-02-18T10:18:18.869Z,102628.25
2018-02-18T10:20:46.388Z,102620.57
2018-02-18T10:23:13.905Z,102617.02
2018-02-18T10:25:41.412Z,102619.46
2018-02-18T10:28:08.916Z,102615.56
2018-02-18T10:30:36.424Z,102620.75
2018-02-18T10:33:03.933Z,102622.78
2018-02-18T10:35:31.447Z,102620.27
2018-02-18T10:37:58.961Z,102620.26
2018-02-18T10:40:26.464Z,102624.07
2018-02-18T10:42:53.977Z,102623.70
2018-02-18T10:45:21.486Z,102628.30
2018-02-18T10:47:48.997Z,102631.03
2018-02-18T10:50:16.503Z,102629.30
2018-02-18T10:52:44.025Z,102628.33
2018-02-18T10:55:11.533Z,102628.09
2018-02-18T10:57:39.040Z,102620.52
2018-02-18T11:00:06.549Z,102615.77
2018-02-18T11:02:34.052Z,102618.72
2018-02-18T11:05:01.591Z,102612.67
2018-02-18T11:07:29.122Z,102613.28
2018-02-18T11:09:56.644Z,102603.94
2018-02-18T11:12:24.158Z,102616.28
2018-02-18T11:14:51.668Z,102612.57
2018-02-18T11:17:19.188Z,102614.25
2018-02-18T11:19:46.699Z,102608.27
2018-02-18T11:22:14.205Z,102609.84
2018-02-18T11:24:41.710Z,102604.86
2018-02-18T11:27:09.224Z,102596.47
2018-02-18T11:29:36.745Z,102593.30
2018-02-18T11:32:04.258Z,102596.30
2018-02-18T11:34:31.765Z,102595.26
2018-02-18T11:36:59.276Z,102599.12
2018-02-18T11:39:26.811Z,102598.36
2018-02-18T11:41:54.337Z,102599.92
2018-02-18T11:44:21.915Z,102599.51
2018-02-18T11:46:49.421Z,102608.34
2018-02-18T11:49:16.944Z,102599.95
2018-02-18T11:51:44.458Z,102606.64
2018-02-18T11:54:11.972Z,102602.64
2018-02-18T11:56:39.492Z,102597.66
2018-02-18T11:59:07.004Z,102595.20
2018-02-18T12:01:34.513Z,102587.73
2018-02-18T12:04:02.034Z,102599.42
2018-02-18T12:06:29.541Z,102593.50
2018-02-18T12:08:57.047Z,102591.88
2018-02-18T12:11:24.560Z,102597.61
2018-02-18T12:13:52.060Z,102593.86
2018-02-18T12:16:19.592Z,102588.41
2018-02-18T12:18:47.104Z,102586.70
2018-02-18T12:21:14.630Z,102587.20
2018-02-18T12:23:42.137Z,102588.82
2018-02-18T12:26:09.657Z,102586.73
2018-02-18T12:28:37.180Z,102578.75
2018-02-18T12:31:04.702Z,102573.05
2018-02-18T12:33:32.217Z,102563.26
2018-02-18T12:35:59.732Z,102565.95
2018-02-18T12:38:27.278Z,102566.77
2018-02-18T12:40:54.797Z,102564.55
2018-02-18T12:43:22.305Z,102565.44
2018-02-18T12:45:49.818Z,102560.11
2018-02-18T12:48:17.321Z,102557.14
2018-02-18T12:50:44.825Z,102558.43
2018-02-18T12:53:12.336Z,102555.33
2018-02-18T12:55:39.864Z,102556.38
2018-02-18T12:58:07.413Z,102557.83
2018-02-18T13:00:34.928Z,102550.66
2018-02-18T13:03:02.438Z,102560.02
2018-02-18T13:05:29.962Z,102561.91
2018-02-18T13:07:57.476Z,102557.41
2018-02-18T13:10:25.006Z,102554.23
2018-02-18T13:12:52.526Z,102552.96
2018-02-18T13:15:20.034Z,102550.28
2018-02-18T13:17:47.606Z,102550.67
2018-02-18T13:20:15.120Z,102551.62
2018-02-18T13:22:42.699Z,102549.38
2018-02-18T13:25:10.212Z,102543.19
2018-02-18T13:27:37.729Z,102541.34
2018-02-18T13:30:05.252Z,102545.80
2018-02-18T13:32:32.814Z,102547.91
2018-02-18T13:35:00.495Z,102546.73
2018-02-18T13:37:28.049Z,102543.58
2018-02-18T13:39:55.575Z,102545.59
2018-02-18T13:42:23.205Z,102541.51
2018-02-18T13:44:50.745Z,102534.50
2018-02-18T13:47:18.248Z,102535.89
2018-02-18T13:49:45.760Z,102536.22
2018-02-18T13:52:13.264Z,102528.34
2018-02-18T13:54:40.821Z,102523.77
2018-02-18T13:57:08.347Z,102519.86
2018-02-18T13:59:35.856Z,102519.36
2018-02-18T14:02:03.371Z,102519.36
2018-02-18T14:04:30.991Z,102522.03
2018-02-18T14:06:58.522Z,102522.47
2018-02-18T14:09:26.116Z,102517.17
2018-02-18T14:11:53.678Z,102517.14
2018-02-18T14:14:21.202Z,102519.78
2018-02-18T14:16:48.717Z,102514.43
2018-02-18T14:19:16.250Z,102521.87
2018-02-18T14:21:43.766Z,102512.54
2018-02-18T14:24:11.284Z,102511.20
2018-02-18T14:26:38.788Z,102509.78
2018-02-18T14:29:06.304Z,102512.54
2018-02-18T14:31:33.833Z,102507.16
2018-02-18T14:34:01.357Z,102507.98
2018-02-18T14:36:28.900Z,102506.64
2018-02-18T14:38:56.446Z,102505.76
2018-02-18T14:41:35.728Z,102502.59
2018-02-18T14:44:15.210Z,102499.17
2018-02-18T14:46:54.745Z,102500.13
2018-02-18T14:49:34.181Z,102502.28
2018-02-18T14:52:13.602Z,102502.75
2018-02-18T14:57:44.340Z,102503.10
2018-02-18T15:00:11.848Z,102498.46
2018-02-18T15:02:39.353Z,102492.40
2018-02-18T15:05:06.879Z,102501.13
2018-02-18T15:07:34.409Z,102500.00
2018-02-18T15:10:01.973Z,102502.45
2018-02-18T15:12:29.492Z,102504.63
2018-02-18T15:14:57.013Z,102503.06
2018-02-18T16:39:21.492Z,102481.52
2018-02-18T16:41:49.003Z,102481.41
2018-02-18T16:44:16.506Z,102480.09
2018-02-18T16:46:44.116Z,102483.14
2018-02-18T16:49:11.622Z,102480.58
2018-02-18T16:51:39.125Z,102475.17
2018-02-18T16:54:06.636Z,102478.31
2018-02-18T16:56:34.144Z,102479.64
2018-02-18T16:59:01.683Z,102475.17
2018-02-18T17:01:29.189Z,102471.19
2018-02-18T17:03:56.733Z,102473.31
2018-02-18T17:06:24.245Z,102474.63
2018-02-18T17:08:51.792Z,102470.21
2018-02-18T17:11:19.292Z,102464.46
2018-02-18T17:13:46.872Z,102460.48
2018-02-18T17:16:14.376Z,102461.36
2018-02-18T17:18:41.893Z,102460.08
2018-02-18T17:21:09.400Z,102456.94
2018-02-18T17:23:36.905Z,102453.00
2018-02-18T17:26:04.416Z,102450.74
2018-02-18T17:28:31.937Z,102447.20
2018-02-18T17:30:59.454Z,102440.87
2018-02-18T17:33:26.985Z,102439.59
2018-02-18T17:35:54.609Z,102442.25
2018-02-18T17:38:22.114Z,102441.41
2018-02-18T17:40:49.621Z,102440.97
2018-02-18T17:43:17.124Z,102439.19
2018-02-18T17:45:44.754Z,102439.59
2018-02-18T17:48:12.272Z,102438.70
2018-02-18T17:50:39.864Z,102448.79
2018-02-18T17:53:07.372Z,102446.62
2018-02-18T17:55:34.882Z,102453.30
2018-02-18T17:58:02.397Z,102445.78
2018-02-18T18:00:30.002Z,102442.93
2018-02-18T18:02:57.563Z,102445.69
2018-02-18T18:05:25.075Z,102449.67
2018-02-18T18:07:52.580Z,102436.89
2018-02-18T18:10:20.152Z,102442.69
2018-02-18T18:12:47.667Z,102433.84
2018-02-18T18:15:15.182Z,102431.58
2018-02-18T18:17:42.693Z,102424.09
2018-02-18T18:20:10.196Z,102424.41
2018-02-18T18:22:37.729Z,102428.39
2018-02-18T18:25:05.240Z,102421.84
2018-02-18T18:27:32.852Z,102426.27
2018-02-18T18:30:00.391Z,102430.69
2018-02-18T18:32:27.943Z,102429.81
2018-02-18T18:34:55.446Z,102428.03
2018-02-18T18:37:22.957Z,102431.04
2018-02-18T18:39:50.475Z,102430.20
2018-02-18T18:42:17.981Z,102427.60
2018-02-18T18:44:45.571Z,102428.83
2018-02-18T18:47:13.096Z,102420.88
2018-02-18T18:49:40.608Z,102419.14
2018-02-18T18:52:08.134Z,102426.22
2018-02-18T18:54:36.596Z,102425.28
2018-02-18T18:57:04.103Z,102426.53
2018-02-18T18:59:32.532Z,102427.45
2018-02-18T19:02:00.050Z,102418.16
2018-02-18T19:04:27.624Z,102421.71
2018-02-18T19:06:55.141Z,102427.50
2018-02-18T19:09:22.653Z,102422.64
2018-02-18T19:11:50.173Z,102426.63
2018-02-18T19:14:17.701Z,102420.02
2018-02-18T19:16:45.209Z,102421.27
2018-02-18T19:19:12.761Z,102421.70
2018-02-18T19:21:40.316Z,102419.49
2018-02-18T19:24:07.862Z,102421.75
2018-02-18T19:26:35.371Z,102422.55
2018-02-18T19:29:02.981Z,102424.35
2018-02-18T19:31:30.492Z,102427.01
2018-02-18T19:33:58.011Z,102424.76
2018-02-18T19:36:25.576Z,102419.04
2018-02-18T19:38:53.099Z,102407.94
2018-02-18T19:41:21.548Z,102408.39
2018-02-18T19:43:49.068Z,102407.90
2018-02-18T19:46:16.583Z,102405.69
2018-02-18T19:48:44.101Z,102404.80
2018-02-18T19:51:11.619Z,102407.41
2018-02-18T19:53:39.137Z,102402.59
2018-02-18T19:56:06.656Z,102404.25
2018-02-18T19:58:34.160Z,102410.51
2018-02-18T20:01:01.674Z,102410.10
2018-02-18T20:03:29.233Z,102411.39
2018-02-18T20:05:56.792Z,102407.35
2018-02-18T20:08:24.353Z,102406.92
2018-02-18T20:10:51.873Z,102399.45
2018-02-18T20:13:19.419Z,102402.50
2018-02-18T20:15:46.914Z,102399.01
2018-02-18T20:18:14.449Z,102405.25
2018-02-18T20:20:41.964Z,102402.05
2018-02-18T20:23:09.480Z,102398.95
2018-02-18T20:25:37.028Z,102400.33
2018-02-18T20:28:04.590Z,102402.05
2018-02-18T20:30:32.098Z,102389.66
2018-02-18T20:32:59.614Z,102393.70
2018-02-18T20:35:27.164Z,102394.98
2018-02-18T20:37:54.747Z,102396.80
2018-02-18T20:40:22.289Z,102391.48
2018-02-18T20:42:49.839Z,102396.30
2018-02-18T20:45:17.462Z,102398.55
2018-02-18T20:47:44.972Z,102391.00
2018-02-18T20:50:12.491Z,102388.73
2018-02-18T20:52:40.002Z,102392.66
2018-02-18T20:55:07.548Z,102391.43
2018-02-18T20:57:35.059Z,102387.35
2018-02-18T21:00:02.579Z,102382.89
2018-02-18T21:02:30.088Z,102385.92
2018-02-18T21:04:57.599Z,102384.16
2018-02-18T21:07:25.105Z,102384.70
2018-02-18T21:09:52.618Z,102384.26
2018-02-18T21:12:20.154Z,102381.95
2018-02-18T21:14:47.674Z,102382.40
2018-02-18T21:17:15.182Z,102382.93
2018-02-18T21:19:42.693Z,102380.62
2018-02-18T21:22:10.192Z,102382.84
2018-02-18T21:24:37.724Z,102380.86
2018-02-18T21:27:05.235Z,102374.29
2018-02-18T21:29:32.753Z,102377.04
2018-02-18T21:32:00.279Z,102373.10
2018-02-18T21:34:27.837Z,102366.42
2018-02-18T21:36:55.341Z,102374.67
2018-02-18T21:39:22.841Z,102367.70
2018-02-18T21:41:50.354Z,102372.13
2018-02-18T21:44:17.873Z,102368.63
2018-02-18T21:46:45.387Z,102365.98
2018-02-18T21:49:12.917Z,102358.48
2018-02-18T21:51:40.445Z,102358.36
2018-02-18T21:54:07.954Z,102351.84
2018-02-18T21:56:35.473Z,102352.23
2018-02-18T21:59:02.985Z,102346.04
2018-02-18T22:01:30.493Z,102341.62
2018-02-18T22:03:58.002Z,102343.34
2018-02-18T22:06:25.509Z,102335.83
2018-02-18T22:08:53.022Z,102338.44
2018-02-18T22:11:20.533Z,102338.87
2018-02-18T22:13:48.041Z,102340.15
2018-02-18T22:16:15.568Z,102343.69
2018-02-18T22:18:43.073Z,102339.50
2018-02-18T22:21:10.586Z,102335.52
2018-02-18T22:23:38.093Z,102328.89
2018-02-18T22:26:05.609Z,102321.87
2018-02-18T22:28:33.156Z,102319.56
2018-02-18T22:31:00.660Z,102310.78
2018-02-18T22:33:28.178Z,102307.58
2018-02-18T22:35:55.714Z,102302.67
2018-02-18T22:38:23.262Z,102304.00
2018-02-18T22:40:50.774Z,102296.10
2018-02-18T22:43:18.280Z,102298.34
2018-02-18T22:45:45.801Z,102288.91
2018-02-18T22:48:13.317Z,102297.80
2018-02-18T22:50:40.844Z,102281.46
2018-02-18T22:53:08.356Z,102288.92
2018-02-18T22:55:35.872Z,102289.81
2018-02-18T22:58:03.385Z,102284.95
2018-02-18T23:00:30.894Z,102295.16
2018-02-18T23:02:58.420Z,102287.16
2018-02-18T23:05:31.443Z,102277.48
2018-02-18T23:07:58.948Z,102271.64
2018-02-18T23:10:26.478Z,102266.05
2018-02-18T23:12:54.005Z,102262.86
2018-02-18T23:15:21.535Z,102263.26
2018-02-18T23:17:49.051Z,102258.38
2018-02-18T23:20:16.560Z,102253.14
2018-02-18T23:22:44.154Z,102254.03
2018-02-18T23:25:11.681Z,102250.50
2018-02-18T23:27:39.196Z,102249.56
2018-02-18T23:30:06.705Z,102250.38
2018-02-18T23:32:34.224Z,102252.98
2018-02-18T23:35:01.735Z,102256.47
2018-02-18T23:37:29.280Z,102255.69
2018-02-18T23:39:56.871Z,102252.59
2018-02-18T23:42:24.389Z,102248.08
2018-02-18T23:44:51.998Z,102248.45
2018-02-18T23:47:19.543Z,102236.93
2018-02-18T23:49:47.053Z,102239.63
2018-02-18T23:52:14.565Z,102241.30
2018-02-18T23:54:42.082Z,102245.27
2018-02-18T23:57:09.696Z,102241.74
2018-02-18T23:59:37.228Z,102228.44
